createdAt,value
2023-04-26T00:00:43.705Z,11.35
2023-04-26T00:03:13.421Z,10.85
2023-04-26T00:05:41.129Z,11.68
2023-04-26T00:08:09.315Z,11.60
2023-04-26T00:10:37.120Z,11.55
2023-04-26T00:13:04.481Z,11.43
2023-04-26T00:15:32.154Z,11.65
2023-04-26T00:17:59.510Z,11.80
2023-04-26T00:20:26.839Z,11.55
2023-04-26T00:22:54.557Z,11.40
2023-04-26T00:25:21.890Z,12.05
2023-04-26T00:27:49.998Z,12.07
2023-04-26T00:30:17.406Z,12.65
2023-04-26T00:32:44.742Z,12.30
2023-04-26T00:35:12.352Z,12.35
2023-04-26T00:37:40.111Z,12.65
2023-04-26T00:40:08.101Z,11.38
2023-04-26T00:42:35.497Z,11.10
2023-04-26T00:45:02.906Z,11.63
2023-04-26T00:47:30.347Z,11.07
2023-04-26T00:49:59.116Z,10.93
2023-04-26T00:52:26.674Z,10.63
2023-04-26T00:54:54.303Z,10.48
2023-04-26T00:57:21.998Z,10.40
2023-04-26T00:59:49.545Z,9.73
2023-04-26T01:02:17.693Z,9.70
2023-04-26T01:04:45.687Z,9.90
2023-04-26T01:07:13.234Z,9.38
2023-04-26T01:09:40.697Z,9.70
2023-04-26T01:12:08.075Z,9.40
2023-04-26T01:14:36.804Z,9.38
2023-04-26T01:17:05.714Z,9.68
2023-04-26T01:19:33.205Z,10.07
2023-04-26T01:22:00.755Z,9.40
2023-04-26T01:24:28.485Z,9.15
2023-04-26T01:26:56.844Z,9.55
2023-04-26T01:29:24.370Z,10.05
2023-04-26T01:31:52.061Z,10.10
2023-04-26T01:34:20.173Z,8.95
2023-04-26T01:36:47.491Z,8.90
2023-04-26T01:39:14.819Z,8.90
2023-04-26T01:41:43.265Z,9.00
2023-04-26T01:44:10.684Z,9.07
2023-04-26T01:46:38.071Z,9.00
2023-04-26T01:49:05.489Z,9.05
2023-04-26T01:51:34.135Z,9.05
2023-04-26T01:54:01.951Z,9.10
2023-04-26T01:56:29.258Z,9.70
2023-04-26T01:58:57.429Z,9.93
2023-04-26T02:01:25.511Z,9.82
2023-04-26T02:03:53.084Z,10.07
2023-04-26T02:06:21.456Z,9.80
2023-04-26T02:08:49.537Z,9.27
2023-04-26T02:11:17.122Z,8.90
2023-04-26T02:13:44.460Z,8.82
2023-04-26T02:16:11.813Z,8.85
2023-04-26T02:18:39.366Z,9.45
2023-04-26T02:21:09.216Z,7.88
2023-04-26T02:23:36.642Z,8.88
2023-04-26T02:26:04.548Z,9.07
2023-04-26T02:28:32.192Z,8.98
2023-04-26T02:30:59.800Z,8.48
2023-04-26T02:33:27.218Z,8.20
2023-04-26T02:35:54.634Z,7.45
2023-04-26T02:38:22.245Z,8.20
2023-04-26T02:40:49.651Z,7.80
2023-04-26T02:43:18.070Z,8.30
2023-04-26T02:45:45.488Z,8.07
2023-04-26T02:48:14.695Z,7.65
2023-04-26T02:50:42.528Z,8.02
2023-04-26T02:53:10.894Z,7.60
2023-04-26T02:55:39.203Z,7.75
2023-04-26T02:58:06.538Z,7.70
2023-04-26T03:00:37.061Z,7.45
2023-04-26T03:03:04.681Z,7.38
2023-04-26T03:05:32.171Z,7.38
2023-04-26T03:07:59.489Z,6.93
2023-04-26T03:10:26.878Z,7.75
2023-04-26T03:12:54.284Z,7.20
2023-04-26T03:15:21.685Z,7.63
2023-04-26T03:17:49.109Z,7.75
2023-04-26T03:20:16.609Z,7.88
2023-04-26T03:22:44.316Z,8.25
2023-04-26T03:25:13.189Z,7.22
2023-04-26T03:27:40.629Z,8.02
2023-04-26T03:30:08.610Z,8.80
2023-04-26T03:32:38.449Z,8.30
2023-04-26T03:35:06.117Z,8.45
2023-04-26T03:37:33.714Z,8.20
2023-04-26T03:40:09.886Z,8.18
2023-04-26T03:42:37.657Z,8.73
2023-04-26T03:45:05.617Z,7.97
2023-04-26T03:47:33.152Z,8.35
2023-04-26T03:50:00.697Z,8.10
2023-04-26T03:52:28.331Z,8.93
2023-04-26T03:54:56.070Z,8.05
2023-04-26T03:57:23.477Z,8.57
2023-04-26T03:59:51.249Z,8.30
2023-04-26T04:02:18.801Z,8.85
2023-04-26T04:04:46.873Z,9.23
2023-04-26T04:07:15.404Z,8.07
2023-04-26T04:09:42.751Z,8.40
2023-04-26T04:12:10.145Z,7.88
2023-04-26T04:14:37.740Z,8.07
2023-04-26T04:17:07.515Z,8.20
2023-04-26T04:19:34.966Z,8.70
2023-04-26T04:22:02.388Z,9.23
2023-04-26T04:24:29.954Z,8.52
2023-04-26T04:26:57.307Z,9.00
2023-04-26T04:29:24.647Z,8.95
2023-04-26T04:31:52.444Z,9.13
2023-04-26T04:34:19.899Z,9.35
2023-04-26T04:36:48.043Z,9.15
2023-04-26T04:39:16.600Z,9.43
2023-04-26T04:41:48.379Z,8.82
2023-04-26T04:44:18.262Z,9.13
2023-04-26T04:46:45.728Z,9.60
2023-04-26T04:49:13.179Z,8.80
2023-04-26T04:51:40.620Z,9.07
2023-04-26T04:54:14.781Z,9.27
2023-04-26T04:56:42.836Z,9.30
2023-04-26T04:59:11.668Z,9.68
2023-04-26T05:01:39.132Z,9.25
2023-04-26T05:04:13.746Z,9.88
2023-04-26T05:06:41.327Z,10.27
2023-04-26T05:09:09.301Z,9.40
2023-04-26T05:11:37.748Z,9.35
2023-04-26T05:14:07.100Z,10.73
2023-04-26T05:16:34.533Z,9.20
2023-04-26T05:19:03.454Z,9.13
2023-04-26T05:21:31.613Z,9.73
2023-04-26T05:23:59.011Z,10.18
2023-04-26T05:26:26.849Z,9.70
2023-04-26T05:28:58.581Z,9.48
2023-04-26T05:31:40.732Z,9.82
2023-04-26T05:34:14.032Z,10.60
2023-04-26T05:36:41.783Z,10.52
2023-04-26T05:39:09.227Z,10.15
2023-04-26T05:41:36.704Z,9.90
2023-04-26T05:44:04.121Z,10.43
2023-04-26T05:46:32.413Z,10.10
2023-04-26T05:48:59.738Z,10.32
2023-04-26T05:51:28.466Z,10.50
2023-04-26T05:53:57.274Z,10.23
2023-04-26T05:56:25.773Z,10.02
2023-04-26T05:58:53.542Z,9.93
2023-04-26T06:01:21.125Z,9.30
2023-04-26T06:03:48.851Z,9.90
2023-04-26T06:06:20.011Z,10.98
2023-04-26T06:08:48.762Z,10.40
2023-04-26T06:11:16.243Z,11.68
2023-04-26T06:13:43.870Z,9.63
2023-04-26T06:16:11.312Z,10.82
2023-04-26T06:18:38.707Z,10.30
2023-04-26T06:21:08.008Z,9.93
2023-04-26T06:23:36.700Z,10.35
2023-04-26T06:26:04.072Z,10.07
2023-04-26T06:28:31.578Z,10.25
2023-04-26T06:30:58.950Z,9.35
2023-04-26T06:33:26.855Z,9.50
2023-04-26T06:35:54.239Z,10.27
2023-04-26T06:38:21.652Z,9.40
2023-04-26T06:40:49.177Z,9.68
2023-04-26T06:43:17.377Z,9.23
2023-04-26T06:45:52.730Z,9.90
2023-04-26T06:48:20.689Z,9.40
2023-04-26T06:50:48.016Z,9.73
2023-04-26T06:53:15.405Z,10.13
2023-04-26T06:55:42.742Z,9.93
2023-04-26T06:58:10.424Z,9.90
2023-04-26T07:00:43.321Z,10.60
2023-04-26T07:03:10.988Z,9.93
2023-04-26T07:05:39.843Z,9.80
2023-04-26T07:08:07.391Z,9.80
2023-04-26T07:10:35.063Z,10.13
2023-04-26T07:13:02.442Z,9.75
2023-04-26T07:15:29.919Z,9.73
2023-04-26T07:17:57.301Z,10.60
2023-04-26T07:20:24.690Z,10.35
2023-04-26T07:22:52.040Z,10.23
2023-04-26T07:25:19.486Z,9.52
2023-04-26T07:27:46.796Z,10.15
2023-04-26T07:30:16.251Z,10.35
2023-04-26T07:32:43.692Z,11.32
2023-04-26T07:35:16.263Z,9.20
2023-04-26T07:37:44.678Z,9.63
2023-04-26T07:40:13.703Z,9.68
2023-04-26T07:42:41.098Z,9.63
2023-04-26T07:45:09.172Z,10.50
2023-04-26T07:47:36.578Z,10.57
2023-04-26T07:50:04.295Z,9.43
2023-04-26T07:52:31.648Z,9.23
2023-04-26T07:54:59.043Z,9.68
2023-04-26T07:57:26.856Z,10.68
2023-04-26T07:59:54.302Z,9.27
2023-04-26T08:02:27.056Z,10.07
2023-04-26T08:05:00.798Z,9.98
2023-04-26T08:07:28.305Z,9.32
2023-04-26T08:09:55.746Z,9.90
2023-04-26T08:12:23.036Z,9.40
2023-04-26T08:14:51.041Z,8.40
2023-04-26T08:17:18.433Z,9.18
2023-04-26T08:19:45.826Z,9.57
2023-04-26T08:22:13.276Z,9.02
2023-04-26T08:24:40.719Z,8.85
2023-04-26T08:27:08.067Z,9.77
2023-04-26T08:29:36.184Z,8.77
2023-04-26T08:32:03.575Z,8.18
2023-04-26T08:34:30.968Z,8.30
2023-04-26T08:36:58.368Z,9.05
2023-04-26T08:39:25.775Z,8.52
2023-04-26T08:41:57.552Z,7.70
2023-04-26T08:44:29.256Z,8.85
2023-04-26T08:47:24.357Z,7.72
2023-04-26T09:05:14.477Z,5.82
2023-04-26T09:11:33.609Z,6.68
2023-04-26T09:14:01.002Z,6.20
2023-04-26T09:16:37.586Z,6.55
2023-04-26T09:25:08.038Z,6.43
2023-04-26T09:27:40.896Z,7.32
2023-04-26T09:30:24.120Z,7.00
2023-04-26T09:36:18.037Z,6.70
2023-04-26T09:38:45.750Z,6.10
2023-04-26T09:41:13.060Z,6.13
2023-04-26T09:43:40.463Z,5.53
2023-04-26T09:46:07.863Z,6.00
2023-04-26T09:48:35.580Z,6.30
2023-04-26T09:51:10.917Z,5.60
2023-04-26T09:53:42.690Z,6.05
2023-04-26T09:56:14.221Z,5.47
2023-04-26T09:58:44.306Z,4.90
2023-04-26T10:01:11.963Z,5.35
2023-04-26T10:03:42.898Z,5.32
2023-04-26T10:06:10.553Z,4.65
2023-04-26T10:08:37.943Z,4.68
2023-04-26T10:11:07.480Z,5.07
2023-04-26T10:13:35.493Z,4.55
2023-04-26T10:16:03.098Z,5.00
2023-04-26T10:18:31.497Z,5.32
2023-04-26T10:21:11.299Z,4.95
2023-04-26T10:23:39.450Z,4.50
2023-04-26T10:26:07.584Z,5.63
2023-04-26T10:28:41.471Z,4.60
2023-04-26T10:31:08.826Z,4.55
2023-04-26T10:33:36.224Z,7.63
2023-04-26T10:36:03.941Z,4.60
2023-04-26T10:38:31.743Z,4.57
2023-04-26T10:41:31.401Z,4.85
2023-04-26T10:44:01.824Z,4.80
2023-04-26T10:46:37.297Z,4.90
2023-04-26T10:49:15.661Z,5.05
2023-04-26T10:52:12.528Z,5.80
2023-04-26T10:54:53.920Z,5.53
2023-04-26T10:57:21.730Z,4.47
2023-04-26T11:00:12.714Z,4.93
2023-04-26T11:02:53.348Z,5.10
2023-04-26T11:05:42.723Z,5.30
2023-04-26T11:08:18.445Z,3.78
2023-04-26T11:11:10.142Z,3.78
2023-04-26T11:13:38.869Z,3.63
2023-04-26T11:16:16.610Z,3.20
2023-04-26T11:18:45.147Z,3.20
2023-04-26T11:21:15.254Z,3.40
2023-04-26T11:23:42.552Z,4.25
2023-04-26T11:26:09.936Z,3.88
2023-04-26T11:28:38.117Z,4.10
2023-04-26T11:31:06.448Z,5.47
2023-04-26T11:33:36.463Z,5.90
2023-04-26T11:36:04.236Z,5.82
2023-04-26T11:38:31.638Z,5.82
2023-04-26T11:41:02.444Z,5.95
2023-04-26T11:43:34.179Z,5.43
2023-04-26T11:46:01.942Z,5.47
2023-04-26T11:48:29.998Z,5.63
2023-04-26T11:50:58.591Z,4.68
2023-04-26T11:53:26.104Z,4.97
2023-04-26T11:55:53.797Z,4.15
2023-04-26T11:58:21.205Z,4.53
2023-04-26T12:00:58.685Z,4.55
2023-04-26T12:03:35.322Z,3.90
2023-04-26T12:06:03.927Z,4.05
2023-04-26T12:08:32.444Z,4.28
2023-04-26T12:11:03.062Z,4.15
2023-04-26T12:13:30.620Z,4.13
2023-04-26T12:15:58.043Z,3.72
2023-04-26T12:18:32.630Z,4.03
2023-04-26T12:21:00.288Z,4.65
2023-04-26T12:23:27.940Z,4.82
2023-04-26T12:26:02.026Z,4.70
2023-04-26T12:28:29.344Z,4.60
2023-04-26T12:30:56.891Z,4.18
2023-04-26T12:33:25.390Z,4.78
2023-04-26T12:35:52.715Z,4.78
2023-04-26T12:38:20.183Z,4.75
2023-04-26T12:40:47.470Z,4.30
2023-04-26T12:43:16.695Z,4.65
2023-04-26T12:45:44.085Z,4.30
2023-04-26T12:48:11.888Z,5.03
2023-04-26T12:50:39.505Z,4.97
2023-04-26T12:53:06.970Z,4.60
2023-04-26T12:55:34.386Z,4.80
2023-04-26T12:58:01.779Z,4.43
2023-04-26T13:00:29.295Z,5.03
2023-04-26T13:02:56.791Z,4.40
2023-04-26T13:05:27.066Z,4.13
2023-04-26T13:07:54.396Z,4.60
2023-04-26T13:10:22.134Z,5.00
2023-04-26T13:12:49.681Z,4.60
2023-04-26T13:15:17.859Z,4.72
2023-04-26T13:17:45.816Z,5.38
2023-04-26T13:20:13.855Z,4.47
2023-04-26T13:22:42.542Z,4.20
2023-04-26T13:25:13.486Z,4.90
2023-04-26T13:27:41.131Z,4.80
2023-04-26T13:30:09.232Z,4.78
2023-04-26T13:32:36.834Z,4.78
2023-04-26T13:35:04.516Z,4.78
2023-04-26T13:37:32.790Z,5.20
2023-04-26T13:40:00.219Z,4.70
2023-04-26T13:42:27.712Z,4.45
2023-04-26T13:44:55.032Z,4.28
2023-04-26T13:47:22.533Z,4.13
2023-04-26T13:49:50.003Z,4.88
2023-04-26T13:52:17.694Z,4.43
2023-04-26T13:54:45.153Z,3.80
2023-04-26T13:57:12.486Z,3.53
2023-04-26T13:59:40.604Z,3.45
2023-04-26T14:02:08.083Z,4.10
2023-04-26T14:04:36.072Z,3.67
2023-04-26T14:07:03.560Z,3.28
2023-04-26T14:09:31.457Z,4.10
2023-04-26T14:12:07.801Z,4.28
2023-04-26T14:14:37.016Z,3.88
2023-04-26T14:17:04.400Z,3.53
2023-04-26T14:19:31.766Z,3.50
2023-04-26T14:21:59.466Z,2.90
2023-04-26T14:24:26.962Z,2.80
2023-04-26T14:26:54.396Z,2.88
2023-04-26T14:29:22.058Z,3.60
2023-04-26T14:31:49.459Z,5.03
2023-04-26T14:34:17.241Z,3.60
2023-04-26T14:36:44.512Z,4.68
2023-04-26T14:39:11.853Z,5.07
2023-04-26T14:41:39.146Z,4.20
2023-04-26T14:44:06.544Z,3.97
2023-04-26T14:46:33.988Z,4.05
2023-04-26T14:49:01.305Z,4.03
2023-04-26T14:51:28.712Z,4.07
2023-04-26T14:53:56.039Z,4.35
2023-04-26T14:56:23.761Z,3.80
2023-04-26T14:58:51.106Z,3.95
2023-04-26T15:01:18.446Z,4.15
2023-04-26T15:03:46.497Z,4.65
2023-04-26T15:06:13.919Z,5.00
2023-04-26T15:08:41.307Z,4.40
2023-04-26T15:11:08.645Z,4.55
2023-04-26T15:13:36.134Z,4.00
2023-04-26T15:16:08.169Z,4.40
2023-04-26T15:18:35.716Z,4.38
2023-04-26T15:21:03.144Z,4.30
2023-04-26T15:23:33.609Z,4.72
2023-04-26T15:26:04.392Z,4.03
2023-04-26T15:28:31.874Z,4.10
2023-04-26T15:31:06.018Z,4.30
2023-04-26T15:33:33.363Z,4.97
2023-04-26T15:36:00.884Z,4.13
2023-04-26T15:38:28.170Z,4.72
2023-04-26T15:40:55.536Z,4.50
2023-04-26T15:43:22.851Z,3.92
2023-04-26T15:45:50.728Z,4.53
2023-04-26T15:48:18.391Z,4.20
2023-04-26T15:50:46.471Z,4.82
2023-04-26T15:53:14.018Z,3.85
2023-04-26T15:55:41.604Z,3.92
2023-04-26T15:58:11.283Z,3.47
2023-04-26T16:00:38.847Z,3.80
2023-04-26T16:03:06.894Z,4.25
2023-04-26T16:05:34.429Z,3.95
2023-04-26T16:08:03.299Z,4.78
2023-04-26T16:10:30.751Z,3.95
2023-04-26T16:12:58.840Z,9.00
2023-04-26T16:15:26.390Z,4.22
2023-04-26T16:17:53.751Z,4.22
2023-04-26T16:20:24.462Z,4.63
2023-04-26T16:22:52.987Z,4.60
2023-04-26T16:25:20.436Z,4.20
2023-04-26T16:27:48.316Z,4.53
2023-04-26T16:30:16.008Z,4.53
2023-04-26T16:32:44.148Z,4.20
2023-04-26T16:35:11.539Z,3.85
2023-04-26T16:37:40.962Z,3.75
2023-04-26T16:40:10.665Z,4.60
2023-04-26T16:42:42.021Z,4.10
2023-04-26T16:45:16.050Z,4.85
2023-04-26T16:47:44.120Z,4.00
2023-04-26T16:50:11.698Z,3.67
2023-04-26T16:52:39.698Z,4.07
2023-04-26T16:55:08.626Z,4.00
2023-04-26T16:57:35.970Z,4.03
2023-04-26T17:00:07.319Z,4.00
2023-04-26T17:02:34.873Z,4.18
2023-04-26T17:05:03.060Z,4.30
2023-04-26T17:07:30.720Z,3.83
2023-04-26T17:09:58.028Z,3.55
2023-04-26T17:12:25.424Z,3.85
2023-04-26T17:14:52.857Z,4.25
2023-04-26T17:17:30.855Z,4.00
2023-04-26T17:20:00.983Z,4.30
2023-04-26T17:22:28.289Z,4.60
2023-04-26T17:24:55.602Z,3.88
2023-04-26T17:27:24.796Z,4.72
2023-04-26T17:29:52.376Z,4.32
2023-04-26T17:32:19.693Z,3.88
2023-04-26T17:34:47.002Z,3.47
2023-04-26T17:37:14.372Z,3.70
2023-04-26T17:39:41.782Z,3.95
2023-04-26T17:42:09.181Z,3.90
2023-04-26T17:44:36.678Z,3.90
2023-04-26T17:47:04.165Z,4.63
2023-04-26T17:49:32.063Z,3.80
2023-04-26T17:51:59.418Z,4.13
2023-04-26T17:54:26.744Z,4.32
2023-04-26T17:56:54.051Z,4.28
2023-04-26T17:59:21.522Z,4.47
2023-04-26T18:01:48.996Z,4.43
2023-04-26T18:04:16.600Z,4.10
2023-04-26T18:06:44.453Z,4.50
2023-04-26T18:09:11.803Z,4.07
2023-04-26T18:11:39.124Z,4.20
2023-04-26T18:14:06.491Z,4.60
2023-04-26T18:16:33.921Z,3.92
2023-04-26T18:19:01.253Z,6.90
2023-04-26T18:21:28.577Z,4.40
2023-04-26T18:23:56.261Z,4.53
2023-04-26T18:26:23.640Z,4.28
2023-04-26T18:28:50.955Z,4.20
2023-04-26T18:31:18.399Z,3.70
2023-04-26T18:33:48.147Z,4.35
2023-04-26T18:36:16.294Z,4.43
2023-04-26T18:38:44.360Z,4.97
2023-04-26T18:41:11.924Z,4.45
2023-04-26T18:43:39.247Z,4.90
2023-04-26T18:46:07.459Z,4.30
2023-04-26T18:48:34.827Z,4.03
2023-04-26T18:51:02.159Z,4.05
2023-04-26T18:53:29.571Z,4.28
2023-04-26T18:55:57.081Z,4.28
2023-04-26T18:58:24.406Z,4.75
2023-04-26T19:00:53.429Z,4.93
2023-04-26T19:03:21.174Z,4.70
2023-04-26T19:05:48.837Z,4.95
2023-04-26T19:08:16.835Z,4.55
2023-04-26T19:10:44.158Z,4.72
2023-04-26T19:13:11.449Z,5.45
2023-04-26T19:15:38.827Z,4.78
2023-04-26T19:18:06.293Z,4.25
2023-04-26T19:20:33.781Z,4.70
2023-04-26T19:23:01.155Z,5.40
2023-04-26T19:25:30.393Z,4.70
2023-04-26T19:27:57.813Z,4.60
2023-04-26T19:30:25.104Z,5.03
2023-04-26T19:32:52.488Z,7.03
2023-04-26T19:35:19.854Z,5.07
2023-04-26T19:37:47.137Z,5.05
2023-04-26T19:40:14.527Z,5.10
2023-04-26T19:42:41.828Z,5.32
2023-04-26T19:45:09.431Z,5.72
2023-04-26T19:47:36.783Z,5.65
2023-04-26T19:50:04.420Z,6.28
2023-04-26T19:52:31.750Z,5.72
2023-04-26T19:54:59.094Z,5.00
2023-04-26T19:57:26.390Z,5.38
2023-04-26T19:59:53.744Z,5.22
2023-04-26T20:02:21.211Z,5.20
2023-04-26T20:04:48.621Z,5.18
2023-04-26T20:07:15.908Z,5.35
2023-04-26T20:09:43.215Z,5.40
2023-04-26T20:12:11.020Z,5.13
2023-04-26T20:14:38.315Z,5.28
2023-04-26T20:17:05.891Z,5.15
2023-04-26T20:19:33.233Z,5.43
2023-04-26T20:22:00.565Z,5.50
2023-04-26T20:24:28.205Z,4.90
2023-04-26T20:26:56.429Z,4.88
2023-04-26T20:29:24.085Z,5.57
2023-04-26T20:31:51.762Z,4.80
2023-04-26T20:34:19.197Z,4.90
2023-04-26T20:36:46.637Z,4.88
2023-04-26T20:39:14.125Z,4.70
2023-04-26T20:41:41.495Z,4.95
2023-04-26T20:44:08.821Z,5.70
2023-04-26T20:46:36.533Z,5.25
2023-04-26T20:49:05.083Z,5.78
2023-04-26T20:51:33.259Z,5.60
2023-04-26T20:54:01.026Z,6.20
2023-04-26T20:56:28.343Z,5.43
2023-04-26T20:58:56.654Z,5.55
2023-04-26T21:01:24.062Z,6.00
2023-04-26T21:03:51.895Z,5.43
2023-04-26T21:06:19.404Z,5.03
2023-04-26T21:08:46.920Z,4.90
2023-04-26T21:11:14.296Z,5.90
2023-04-26T21:13:41.676Z,5.45
2023-04-26T21:16:09.031Z,5.85
2023-04-26T21:18:36.338Z,5.60
2023-04-26T21:21:03.850Z,5.15
2023-04-26T21:23:31.140Z,5.38
2023-04-26T21:25:58.459Z,4.97
2023-04-26T21:28:26.001Z,5.45
2023-04-26T21:31:04.391Z,5.30
2023-04-26T21:33:32.234Z,6.72
2023-04-26T21:36:00.501Z,6.07
2023-04-26T21:38:28.054Z,5.85
2023-04-26T21:40:55.408Z,5.80
2023-04-26T21:43:22.839Z,5.45
2023-04-26T21:45:51.808Z,5.72
2023-04-26T21:48:19.163Z,4.65
2023-04-26T21:50:49.423Z,5.85
2023-04-26T21:53:17.145Z,5.53
2023-04-26T21:55:44.529Z,5.60
2023-04-26T21:58:11.872Z,5.68
2023-04-26T22:00:39.286Z,6.15
2023-04-26T22:03:06.837Z,5.90
2023-04-26T22:05:34.423Z,5.95
2023-04-26T22:08:01.860Z,5.90
2023-04-26T22:10:29.193Z,5.68
2023-04-26T22:12:56.638Z,5.47
2023-04-26T22:15:24.018Z,5.57
2023-04-26T22:17:51.394Z,5.57
2023-04-26T22:20:18.797Z,5.88
2023-04-26T22:22:46.238Z,5.93
2023-04-26T22:25:13.532Z,5.43
2023-04-26T22:27:40.868Z,5.47
2023-04-26T22:30:22.987Z,5.57
2023-04-26T22:32:57.370Z,5.40
2023-04-26T22:35:25.188Z,5.32
2023-04-26T22:37:52.572Z,5.57
2023-04-26T22:40:19.955Z,4.72
2023-04-26T22:42:47.256Z,5.53
2023-04-26T22:45:14.612Z,4.88
2023-04-26T22:47:42.171Z,4.90
2023-04-26T22:50:10.080Z,5.20
2023-04-26T22:52:37.800Z,5.25
2023-04-26T22:55:06.215Z,5.32
2023-04-26T22:57:33.516Z,5.03
2023-04-26T23:00:00.859Z,5.18
2023-04-26T23:02:28.369Z,5.00
2023-04-26T23:04:55.894Z,4.95
2023-04-26T23:07:23.296Z,5.15
2023-04-26T23:09:50.645Z,4.93
2023-04-26T23:12:21.386Z,5.18
2023-04-26T23:14:50.606Z,5.50
2023-04-26T23:17:20.404Z,5.55
2023-04-26T23:19:47.838Z,5.00
2023-04-26T23:22:15.700Z,5.38
2023-04-26T23:24:43.068Z,4.80
2023-04-26T23:27:10.600Z,5.35
2023-04-26T23:29:37.917Z,4.85
2023-04-26T23:32:05.227Z,4.70
2023-04-26T23:34:32.517Z,5.45
2023-04-26T23:37:06.805Z,5.25
2023-04-26T23:39:35.960Z,5.07
2023-04-26T23:42:03.978Z,4.88
2023-04-26T23:44:31.376Z,5.15
2023-04-26T23:46:58.894Z,5.15
2023-04-26T23:49:26.296Z,5.22
2023-04-26T23:51:53.654Z,5.05
2023-04-26T23:54:21.001Z,5.18
2023-04-26T23:56:48.280Z,5.00
2023-04-26T23:59:16.579Z,4.80
